sensor_id;sensor_type;location;lat;lon;timestamp;pressure;altitude;pressure_sealevel;temperature;humidity
6833;BME280;3454;42.654;23.378;2022-12-18T00:01:25;95185.09;;;6.63;100.00
6833;BME280;3454;42.654;23.378;2022-12-18T00:03:52;95184.56;;;6.58;100.00
6833;BME280;3454;42.654;23.378;2022-12-18T00:06:19;95198.84;;;6.45;100.00
6833;BME280;3454;42.654;23.378;2022-12-18T00:08:45;95188.47;;;6.35;100.00
6833;BME280;3454;42.654;23.378;2022-12-18T00:11:13;95189.09;;;6.25;100.00
6833;BME280;3454;42.654;23.378;2022-12-18T00:13:38;95201.28;;;6.18;100.00
6833;BME280;3454;42.654;23.378;2022-12-18T00:16:06;95198.59;;;6.21;100.00
6833;BME280;3454;42.654;23.378;2022-12-18T00:18:32;95205.16;;;6.10;100.00
6833;BME280;3454;42.654;23.378;2022-12-18T00:21:02;95202.44;;;6.13;100.00
6833;BME280;3454;42.654;23.378;2022-12-18T00:23:29;95221.66;;;6.15;100.00
6833;BME280;3454;42.654;23.378;2022-12-18T00:25:58;95207.50;;;6.13;100.00
6833;BME280;3454;42.654;23.378;2022-12-18T00:28:23;95205.78;;;5.99;100.00
6833;BME280;3454;42.654;23.378;2022-12-18T00:30:49;95209.94;;;6.14;100.00
6833;BME280;3454;42.654;23.378;2022-12-18T00:33:16;95226.88;;;6.12;100.00
6833;BME280;3454;42.654;23.378;2022-12-18T00:35:42;95229.03;;;6.04;100.00
6833;BME280;3454;42.654;23.378;2022-12-18T00:38:07;95220.94;;;5.99;100.00
6833;BME280;3454;42.654;23.378;2022-12-18T00:40:33;95223.53;;;5.98;100.00
6833;BME280;3454;42.654;23.378;2022-12-18T00:42:58;95219.56;;;5.93;100.00
6833;BME280;3454;42.654;23.378;2022-12-18T00:45:26;95226.13;;;5.96;100.00
6833;BME280;3454;42.654;23.378;2022-12-18T00:47:51;95228.22;;;5.89;100.00
6833;BME280;3454;42.654;23.378;2022-12-18T00:50:17;95232.81;;;5.97;100.00
6833;BME280;3454;42.654;23.378;2022-12-18T00:52:42;95234.16;;;5.88;100.00
6833;BME280;3454;42.654;23.378;2022-12-18T00:55:08;95241.97;;;5.84;100.00
6833;BME280;3454;42.654;23.378;2022-12-18T00:57:33;95241.41;;;5.79;100.00
6833;BME280;3454;42.654;23.378;2022-12-18T00:59:59;95249.84;;;5.78;100.00
6833;BME280;3454;42.654;23.378;2022-12-18T01:02:24;95243.09;;;5.78;100.00
6833;BME280;3454;42.654;23.378;2022-12-18T01:04:50;95226.78;;;5.70;100.00
6833;BME280;3454;42.654;23.378;2022-12-18T01:07:15;95239.78;;;5.78;100.00
6833;BME280;3454;42.654;23.378;2022-12-18T01:09:41;95249.13;;;5.76;100.00
6833;BME280;3454;42.654;23.378;2022-12-18T01:12:06;95253.72;;;5.69;100.00
6833;BME280;3454;42.654;23.378;2022-12-18T01:14:31;95252.00;;;5.70;100.00
6833;BME280;3454;42.654;23.378;2022-12-18T01:16:57;95255.69;;;5.64;100.00
6833;BME280;3454;42.654;23.378;2022-12-18T01:19:22;95250.00;;;5.61;100.00
6833;BME280;3454;42.654;23.378;2022-12-18T01:21:49;95251.81;;;5.59;100.00
6833;BME280;3454;42.654;23.378;2022-12-18T01:24:14;95251.56;;;5.48;100.00
6833;BME280;3454;42.654;23.378;2022-12-18T01:26:39;95254.31;;;5.29;100.00
6833;BME280;3454;42.654;23.378;2022-12-18T01:29:05;95250.50;;;5.22;100.00
6833;BME280;3454;42.654;23.378;2022-12-18T01:31:32;95255.78;;;5.18;100.00
6833;BME280;3454;42.654;23.378;2022-12-18T01:34:03;95256.09;;;5.11;100.00
6833;BME280;3454;42.654;23.378;2022-12-18T01:36:32;95261.00;;;5.15;100.00
6833;BME280;3454;42.654;23.378;2022-12-18T01:39:03;95260.16;;;5.14;100.00
6833;BME280;3454;42.654;23.378;2022-12-18T01:41:30;95266.41;;;5.07;100.00
6833;BME280;3454;42.654;23.378;2022-12-18T01:52:43;95258.53;;;4.97;100.00
6833;BME280;3454;42.654;23.378;2022-12-18T01:55:10;95260.66;;;5.05;100.00
6833;BME280;3454;42.654;23.378;2022-12-18T01:57:37;95281.81;;;5.02;100.00
6833;BME280;3454;42.654;23.378;2022-12-18T02:00:16;95272.44;;;4.89;100.00
6833;BME280;3454;42.654;23.378;2022-12-18T02:02:43;95277.41;;;4.90;100.00
6833;BME280;3454;42.654;23.378;2022-12-18T02:05:12;95284.38;;;4.85;100.00
6833;BME280;3454;42.654;23.378;2022-12-18T02:10:31;95283.09;;;4.94;100.00
6833;BME280;3454;42.654;23.378;2022-12-18T02:13:14;95299.41;;;4.87;100.00
6833;BME280;3454;42.654;23.378;2022-12-18T02:16:00;95301.53;;;4.94;100.00
6833;BME280;3454;42.654;23.378;2022-12-18T02:18:31;95295.78;;;4.92;100.00
6833;BME280;3454;42.654;23.378;2022-12-18T02:24:04;95304.84;;;4.95;100.00
6833;BME280;3454;42.654;23.378;2022-12-18T02:26:41;95298.13;;;4.95;100.00
6833;BME280;3454;42.654;23.378;2022-12-18T02:29:16;95307.31;;;4.96;100.00
6833;BME280;3454;42.654;23.378;2022-12-18T02:31:47;95305.91;;;4.91;100.00
6833;BME280;3454;42.654;23.378;2022-12-18T02:34:16;95309.09;;;4.94;100.00
6833;BME280;3454;42.654;23.378;2022-12-18T02:36:44;95313.00;;;4.84;100.00
6833;BME280;3454;42.654;23.378;2022-12-18T02:39:12;95309.00;;;4.80;100.00
6833;BME280;3454;42.654;23.378;2022-12-18T02:41:39;95307.78;;;4.87;100.00
6833;BME280;3454;42.654;23.378;2022-12-18T02:44:12;95316.81;;;4.91;100.00
6833;BME280;3454;42.654;23.378;2022-12-18T02:46:41;95330.31;;;4.90;100.00
6833;BME280;3454;42.654;23.378;2022-12-18T02:51:56;95314.94;;;4.79;100.00
6833;BME280;3454;42.654;23.378;2022-12-18T02:57:11;95310.91;;;4.60;100.00
6833;BME280;3454;42.654;23.378;2022-12-18T02:59:47;95310.84;;;4.61;100.00
6833;BME280;3454;42.654;23.378;2022-12-18T03:10:14;95324.78;;;4.51;100.00
6833;BME280;3454;42.654;23.378;2022-12-18T03:12:50;95322.75;;;4.42;100.00
6833;BME280;3454;42.654;23.378;2022-12-18T03:15:25;95331.38;;;4.54;100.00
6833;BME280;3454;42.654;23.378;2022-12-18T03:17:59;95339.88;;;4.51;100.00
6833;BME280;3454;42.654;23.378;2022-12-18T03:20:29;95346.47;;;4.54;100.00
6833;BME280;3454;42.654;23.378;2022-12-18T03:23:00;95339.88;;;4.51;100.00
6833;BME280;3454;42.654;23.378;2022-12-18T03:25:28;95351.34;;;4.57;100.00
6833;BME280;3454;42.654;23.378;2022-12-18T03:27:56;95345.66;;;4.53;100.00
6833;BME280;3454;42.654;23.378;2022-12-18T03:30:25;95357.00;;;4.45;100.00
6833;BME280;3454;42.654;23.378;2022-12-18T03:33:20;95364.63;;;4.43;100.00
6833;BME280;3454;42.654;23.378;2022-12-18T03:35:49;95362.53;;;4.51;100.00
6833;BME280;3454;42.654;23.378;2022-12-18T03:38:15;95373.50;;;4.50;100.00
6833;BME280;3454;42.654;23.378;2022-12-18T03:43:43;95388.44;;;4.53;100.00
6833;BME280;3454;42.654;23.378;2022-12-18T03:46:20;95377.38;;;4.40;100.00
6833;BME280;3454;42.654;23.378;2022-12-18T03:48:55;95399.47;;;4.51;100.00
6833;BME280;3454;42.654;23.378;2022-12-18T03:51:28;95412.81;;;4.53;100.00
6833;BME280;3454;42.654;23.378;2022-12-18T03:54:02;95419.25;;;4.41;100.00
6833;BME280;3454;42.654;23.378;2022-12-18T03:56:32;95421.69;;;4.43;100.00
6833;BME280;3454;42.654;23.378;2022-12-18T03:59:00;95415.25;;;4.37;100.00
6833;BME280;3454;42.654;23.378;2022-12-18T04:01:33;95405.06;;;4.40;100.00
6833;BME280;3454;42.654;23.378;2022-12-18T04:04:00;95401.56;;;4.43;100.00
6833;BME280;3454;42.654;23.378;2022-12-18T04:06:28;95399.94;;;4.42;100.00
6833;BME280;3454;42.654;23.378;2022-12-18T04:08:54;95410.00;;;4.42;100.00
6833;BME280;3454;42.654;23.378;2022-12-18T04:11:21;95401.28;;;4.32;100.00
6833;BME280;3454;42.654;23.378;2022-12-18T04:13:46;95400.31;;;4.34;100.00
6833;BME280;3454;42.654;23.378;2022-12-18T04:16:12;95422.97;;;4.34;100.00
6833;BME280;3454;42.654;23.378;2022-12-18T04:18:37;95416.91;;;4.38;100.00
6833;BME280;3454;42.654;23.378;2022-12-18T04:21:03;95431.91;;;4.40;100.00
6833;BME280;3454;42.654;23.378;2022-12-18T04:23:28;95431.41;;;4.33;100.00
6833;BME280;3454;42.654;23.378;2022-12-18T04:25:54;95437.53;;;4.28;100.00
6833;BME280;3454;42.654;23.378;2022-12-18T04:28:20;95444.88;;;4.32;100.00
6833;BME280;3454;42.654;23.378;2022-12-18T04:30:46;95438.19;;;4.31;100.00
6833;BME280;3454;42.654;23.378;2022-12-18T04:33:17;95453.59;;;4.25;100.00
6833;BME280;3454;42.654;23.378;2022-12-18T04:35:42;95456.03;;;4.26;100.00
6833;BME280;3454;42.654;23.378;2022-12-18T04:38:08;95448.47;;;4.09;100.00
6833;BME280;3454;42.654;23.378;2022-12-18T04:40:35;95448.72;;;4.22;100.00
6833;BME280;3454;42.654;23.378;2022-12-18T04:43:01;95469.81;;;4.19;100.00
6833;BME280;3454;42.654;23.378;2022-12-18T04:45:27;95462.38;;;4.16;100.00
6833;BME280;3454;42.654;23.378;2022-12-18T04:47:53;95468.09;;;4.20;100.00
6833;BME280;3454;42.654;23.378;2022-12-18T04:50:18;95487.53;;;4.16;100.00
6833;BME280;3454;42.654;23.378;2022-12-18T04:52:43;95474.84;;;4.19;100.00
6833;BME280;3454;42.654;23.378;2022-12-18T04:55:09;95499.09;;;4.20;100.00
6833;BME280;3454;42.654;23.378;2022-12-18T04:57:35;95495.63;;;4.23;100.00
6833;BME280;3454;42.654;23.378;2022-12-18T05:00:00;95527.06;;;4.14;100.00
6833;BME280;3454;42.654;23.378;2022-12-18T05:02:26;95531.28;;;4.14;100.00
6833;BME280;3454;42.654;23.378;2022-12-18T05:04:52;95520.59;;;4.09;100.00
6833;BME280;3454;42.654;23.378;2022-12-18T05:07:17;95512.94;;;4.12;100.00
6833;BME280;3454;42.654;23.378;2022-12-18T05:09:43;95535.97;;;4.03;100.00
6833;BME280;3454;42.654;23.378;2022-12-18T05:12:08;95526.66;;;4.05;100.00
6833;BME280;3454;42.654;23.378;2022-12-18T05:14:34;95549.38;;;4.03;100.00
6833;BME280;3454;42.654;23.378;2022-12-18T05:16:59;95521.72;;;3.85;100.00
6833;BME280;3454;42.654;23.378;2022-12-18T05:19:25;95523.84;;;3.94;100.00
6833;BME280;3454;42.654;23.378;2022-12-18T05:21:50;95519.47;;;3.97;100.00
6833;BME280;3454;42.654;23.378;2022-12-18T05:24:15;95544.69;;;3.96;100.00
6833;BME280;3454;42.654;23.378;2022-12-18T05:26:41;95537.34;;;3.91;100.00
6833;BME280;3454;42.654;23.378;2022-12-18T05:29:06;95543.69;;;4.00;100.00
6833;BME280;3454;42.654;23.378;2022-12-18T05:31:31;95565.03;;;3.91;100.00
6833;BME280;3454;42.654;23.378;2022-12-18T05:33:57;95540.41;;;3.79;100.00
6833;BME280;3454;42.654;23.378;2022-12-18T05:36:23;95547.06;;;3.80;100.00
6833;BME280;3454;42.654;23.378;2022-12-18T05:38:48;95547.31;;;3.74;100.00
6833;BME280;3454;42.654;23.378;2022-12-18T05:41:13;95557.19;;;3.79;100.00
6833;BME280;3454;42.654;23.378;2022-12-18T05:43:39;95564.00;;;3.77;100.00
6833;BME280;3454;42.654;23.378;2022-12-18T05:46:06;95569.75;;;3.79;100.00
6833;BME280;3454;42.654;23.378;2022-12-18T05:48:32;95569.41;;;3.86;100.00
6833;BME280;3454;42.654;23.378;2022-12-18T05:51:06;95567.25;;;3.79;100.00
6833;BME280;3454;42.654;23.378;2022-12-18T05:53:32;95568.06;;;3.79;100.00
6833;BME280;3454;42.654;23.378;2022-12-18T05:56:03;95573.41;;;3.72;100.00
6833;BME280;3454;42.654;23.378;2022-12-18T05:58:30;95559.72;;;3.79;100.00
6833;BME280;3454;42.654;23.378;2022-12-18T06:00:56;95572.31;;;3.59;100.00
6833;BME280;3454;42.654;23.378;2022-12-18T06:03:21;95588.00;;;3.64;100.00
6833;BME280;3454;42.654;23.378;2022-12-18T06:05:47;95585.66;;;3.61;100.00
6833;BME280;3454;42.654;23.378;2022-12-18T06:08:13;95557.13;;;3.41;100.00
6833;BME280;3454;42.654;23.378;2022-12-18T06:10:38;95580.63;;;3.61;100.00
6833;BME280;3454;42.654;23.378;2022-12-18T06:13:05;95588.41;;;3.55;100.00
6833;BME280;3454;42.654;23.378;2022-12-18T06:15:31;95596.72;;;3.57;100.00
6833;BME280;3454;42.654;23.378;2022-12-18T06:17:56;95587.53;;;3.56;100.00
6833;BME280;3454;42.654;23.378;2022-12-18T06:20:22;95569.69;;;3.80;100.00
6833;BME280;3454;42.654;23.378;2022-12-18T06:22:47;95607.25;;;3.65;100.00
6833;BME280;3454;42.654;23.378;2022-12-18T06:25:12;95605.22;;;3.73;100.00
6833;BME280;3454;42.654;23.378;2022-12-18T06:27:38;95609.84;;;3.63;100.00
6833;BME280;3454;42.654;23.378;2022-12-18T06:30:04;95596.88;;;3.72;100.00
6833;BME280;3454;42.654;23.378;2022-12-18T06:32:30;95605.84;;;3.78;100.00
6833;BME280;3454;42.654;23.378;2022-12-18T06:34:55;95602.63;;;3.74;100.00
6833;BME280;3454;42.654;23.378;2022-12-18T06:37:21;95618.47;;;3.76;100.00
6833;BME280;3454;42.654;23.378;2022-12-18T06:39:50;95638.91;;;3.89;100.00
6833;BME280;3454;42.654;23.378;2022-12-18T06:42:15;95649.69;;;3.91;100.00
6833;BME280;3454;42.654;23.378;2022-12-18T06:44:40;95648.47;;;3.81;100.00
6833;BME280;3454;42.654;23.378;2022-12-18T06:47:06;95628.47;;;3.78;100.00
6833;BME280;3454;42.654;23.378;2022-12-18T06:49:31;95641.78;;;3.80;100.00
6833;BME280;3454;42.654;23.378;2022-12-18T06:51:57;95657.28;;;3.71;100.00
6833;BME280;3454;42.654;23.378;2022-12-18T06:54:22;95660.41;;;3.76;100.00
6833;BME280;3454;42.654;23.378;2022-12-18T06:56:47;95654.63;;;3.74;100.00
6833;BME280;3454;42.654;23.378;2022-12-18T06:59:13;95678.81;;;3.76;100.00
6833;BME280;3454;42.654;23.378;2022-12-18T07:01:40;95673.78;;;3.76;100.00
6833;BME280;3454;42.654;23.378;2022-12-18T07:04:05;95689.63;;;3.78;100.00
6833;BME280;3454;42.654;23.378;2022-12-18T07:06:30;95698.88;;;3.78;100.00
6833;BME280;3454;42.654;23.378;2022-12-18T07:08:56;95709.06;;;3.75;100.00
6833;BME280;3454;42.654;23.378;2022-12-18T07:11:21;95706.06;;;3.67;100.00
6833;BME280;3454;42.654;23.378;2022-12-18T07:13:47;95692.41;;;3.72;100.00
6833;BME280;3454;42.654;23.378;2022-12-18T07:16:15;95705.41;;;3.82;100.00
6833;BME280;3454;42.654;23.378;2022-12-18T07:18:41;95701.00;;;3.87;100.00
6833;BME280;3454;42.654;23.378;2022-12-18T07:21:09;95707.47;;;3.92;100.00
6833;BME280;3454;42.654;23.378;2022-12-18T07:23:35;95703.28;;;3.93;100.00
6833;BME280;3454;42.654;23.378;2022-12-18T07:26:05;95706.59;;;3.93;100.00
6833;BME280;3454;42.654;23.378;2022-12-18T07:28:32;95685.44;;;3.79;100.00
6833;BME280;3454;42.654;23.378;2022-12-18T07:31:02;95682.84;;;3.80;100.00
6833;BME280;3454;42.654;23.378;2022-12-18T07:33:27;95682.09;;;3.78;100.00
6833;BME280;3454;42.654;23.378;2022-12-18T07:35:53;95710.13;;;3.89;100.00
6833;BME280;3454;42.654;23.378;2022-12-18T07:38:19;95710.88;;;3.91;100.00
6833;BME280;3454;42.654;23.378;2022-12-18T07:40:44;95712.00;;;3.84;100.00
6833;BME280;3454;42.654;23.378;2022-12-18T07:43:10;95719.47;;;3.86;100.00
6833;BME280;3454;42.654;23.378;2022-12-18T07:45:35;95712.25;;;3.78;100.00
6833;BME280;3454;42.654;23.378;2022-12-18T07:48:00;95703.13;;;3.76;100.00
6833;BME280;3454;42.654;23.378;2022-12-18T07:50:26;95706.56;;;3.75;100.00
6833;BME280;3454;42.654;23.378;2022-12-18T07:52:51;95717.22;;;3.80;100.00
6833;BME280;3454;42.654;23.378;2022-12-18T07:55:16;95718.63;;;3.87;100.00
6833;BME280;3454;42.654;23.378;2022-12-18T07:57:42;95712.50;;;3.92;100.00
6833;BME280;3454;42.654;23.378;2022-12-18T08:00:07;95725.66;;;3.79;100.00
6833;BME280;3454;42.654;23.378;2022-12-18T08:02:33;95726.53;;;3.58;100.00
6833;BME280;3454;42.654;23.378;2022-12-18T08:05:05;95701.69;;;3.50;100.00
6833;BME280;3454;42.654;23.378;2022-12-18T08:07:31;95709.63;;;3.61;100.00
6833;BME280;3454;42.654;23.378;2022-12-18T08:09:56;95725.53;;;3.62;100.00
6833;BME280;3454;42.654;23.378;2022-12-18T08:12:22;95723.50;;;3.50;100.00
6833;BME280;3454;42.654;23.378;2022-12-18T08:14:48;95715.97;;;3.50;100.00
6833;BME280;3454;42.654;23.378;2022-12-18T08:17:13;95721.97;;;3.46;100.00
6833;BME280;3454;42.654;23.378;2022-12-18T08:19:39;95715.03;;;3.52;100.00
6833;BME280;3454;42.654;23.378;2022-12-18T08:22:04;95720.47;;;3.41;100.00
6833;BME280;3454;42.654;23.378;2022-12-18T08:24:29;95740.47;;;3.45;100.00
6833;BME280;3454;42.654;23.378;2022-12-18T08:26:55;95744.97;;;3.36;100.00
6833;BME280;3454;42.654;23.378;2022-12-18T08:29:22;95755.13;;;3.33;100.00
6833;BME280;3454;42.654;23.378;2022-12-18T08:31:49;95756.84;;;3.33;100.00
6833;BME280;3454;42.654;23.378;2022-12-18T08:34:14;95758.13;;;3.43;100.00
6833;BME280;3454;42.654;23.378;2022-12-18T08:36:39;95766.28;;;3.48;100.00
6833;BME280;3454;42.654;23.378;2022-12-18T08:39:05;95690.75;;;5.39;100.00
6833;BME280;3454;42.654;23.378;2022-12-18T08:41:30;95711.19;;;4.97;100.00
6833;BME280;3454;42.654;23.378;2022-12-18T08:43:56;95811.34;;;4.35;100.00
6833;BME280;3454;42.654;23.378;2022-12-18T08:46:42;95804.03;;;4.10;100.00
6833;BME280;3454;42.654;23.378;2022-12-18T08:49:09;95779.63;;;3.92;100.00
6833;BME280;3454;42.654;23.378;2022-12-18T08:51:35;95765.31;;;3.72;100.00
6833;BME280;3454;42.654;23.378;2022-12-18T08:54:01;95767.91;;;3.71;100.00
6833;BME280;3454;42.654;23.378;2022-12-18T08:56:33;95759.53;;;3.70;100.00
6833;BME280;3454;42.654;23.378;2022-12-18T08:58:59;95768.97;;;3.65;100.00
6833;BME280;3454;42.654;23.378;2022-12-18T09:01:24;95770.41;;;3.71;100.00
6833;BME280;3454;42.654;23.378;2022-12-18T09:03:50;95781.91;;;3.76;100.00
6833;BME280;3454;42.654;23.378;2022-12-18T09:06:17;95794.03;;;3.67;100.00
6833;BME280;3454;42.654;23.378;2022-12-18T09:08:44;95788.78;;;3.73;100.00
6833;BME280;3454;42.654;23.378;2022-12-18T09:11:23;95804.84;;;3.69;100.00
6833;BME280;3454;42.654;23.378;2022-12-18T09:13:50;95812.22;;;3.73;100.00
6833;BME280;3454;42.654;23.378;2022-12-18T09:16:16;95806.22;;;3.76;100.00
6833;BME280;3454;42.654;23.378;2022-12-18T09:18:42;95806.22;;;3.76;100.00
6833;BME280;3454;42.654;23.378;2022-12-18T09:21:18;95808.16;;;3.91;100.00
6833;BME280;3454;42.654;23.378;2022-12-18T09:23:50;95808.91;;;3.93;100.00
6833;BME280;3454;42.654;23.378;2022-12-18T09:26:16;95819.31;;;3.84;100.00
6833;BME280;3454;42.654;23.378;2022-12-18T09:28:42;95781.75;;;3.81;100.00
6833;BME280;3454;42.654;23.378;2022-12-18T09:31:08;95816.69;;;3.87;100.00
6833;BME280;3454;42.654;23.378;2022-12-18T09:33:36;95800.50;;;3.94;100.00
6833;BME280;3454;42.654;23.378;2022-12-18T09:36:03;95812.56;;;4.06;100.00
6833;BME280;3454;42.654;23.378;2022-12-18T09:38:29;95820.81;;;4.09;100.00
6833;BME280;3454;42.654;23.378;2022-12-18T09:40:59;95827.94;;;4.20;100.00
6833;BME280;3454;42.654;23.378;2022-12-18T09:43:41;95864.59;;;4.25;100.00
6833;BME280;3454;42.654;23.378;2022-12-18T09:46:11;95883.84;;;4.26;100.00
6833;BME280;3454;42.654;23.378;2022-12-18T09:48:42;95840.75;;;3.94;100.00
6833;BME280;3454;42.654;23.378;2022-12-18T09:51:19;95847.41;;;3.95;100.00
6833;BME280;3454;42.654;23.378;2022-12-18T09:53:56;95820.47;;;3.97;100.00
6833;BME280;3454;42.654;23.378;2022-12-18T09:56:25;95845.56;;;3.98;100.00
6833;BME280;3454;42.654;23.378;2022-12-18T09:58:58;95853.34;;;4.14;100.00
6833;BME280;3454;42.654;23.378;2022-12-18T10:01:24;95844.63;;;4.41;100.00
6833;BME280;3454;42.654;23.378;2022-12-18T10:03:50;95890.53;;;4.48;100.00
6833;BME280;3454;42.654;23.378;2022-12-18T10:06:25;95866.28;;;4.25;100.00
6833;BME280;3454;42.654;23.378;2022-12-18T10:14:07;95883.72;;;4.09;100.00
6833;BME280;3454;42.654;23.378;2022-12-18T10:16:47;95863.06;;;4.01;100.00
6833;BME280;3454;42.654;23.378;2022-12-18T10:24:52;95863.69;;;4.26;100.00
6833;BME280;3454;42.654;23.378;2022-12-18T10:27:25;95865.19;;;4.10;100.00
6833;BME280;3454;42.654;23.378;2022-12-18T10:29:51;95876.03;;;4.12;100.00
6833;BME280;3454;42.654;23.378;2022-12-18T10:32:26;95875.09;;;4.15;100.00
6833;BME280;3454;42.654;23.378;2022-12-18T10:34:55;95858.91;;;4.00;100.00
6833;BME280;3454;42.654;23.378;2022-12-18T10:37:23;95872.75;;;4.10;100.00
6833;BME280;3454;42.654;23.378;2022-12-18T10:40:11;95854.38;;;4.08;100.00
6833;BME280;3454;42.654;23.378;2022-12-18T10:42:37;95847.56;;;4.12;100.00
6833;BME280;3454;42.654;23.378;2022-12-18T10:45:09;95836.47;;;4.16;100.00
6833;BME280;3454;42.654;23.378;2022-12-18T10:47:35;95847.91;;;4.23;100.00
6833;BME280;3454;42.654;23.378;2022-12-18T10:50:02;95835.72;;;4.34;100.00
6833;BME280;3454;42.654;23.378;2022-12-18T10:52:28;95840.88;;;4.31;100.00
6833;BME280;3454;42.654;23.378;2022-12-18T10:55:01;95822.91;;;4.20;100.00
6833;BME280;3454;42.654;23.378;2022-12-18T10:59:56;95809.03;;;4.30;100.00
6833;BME280;3454;42.654;23.378;2022-12-18T11:02:34;95823.06;;;4.36;100.00
6833;BME280;3454;42.654;23.378;2022-12-18T11:05:00;95825.94;;;4.47;100.00
6833;BME280;3454;42.654;23.378;2022-12-18T11:07:49;95845.28;;;4.46;100.00
6833;BME280;3454;42.654;23.378;2022-12-18T11:10:25;95859.16;;;4.55;100.00
6833;BME280;3454;42.654;23.378;2022-12-18T11:12:51;95863.75;;;4.45;100.00
6833;BME280;3454;42.654;23.378;2022-12-18T11:15:30;95858.53;;;4.50;100.00
6833;BME280;3454;42.654;23.378;2022-12-18T11:17:55;95861.97;;;4.67;100.00
6833;BME280;3454;42.654;23.378;2022-12-18T11:20:32;95903.69;;;4.93;100.00
6833;BME280;3454;42.654;23.378;2022-12-18T11:23:01;95950.94;;;4.68;100.00
6833;BME280;3454;42.654;23.378;2022-12-18T11:25:28;95931.50;;;4.51;100.00
6833;BME280;3454;42.654;23.378;2022-12-18T11:30:32;95938.44;;;4.66;100.00
6833;BME280;3454;42.654;23.378;2022-12-18T11:33:09;95911.50;;;4.48;100.00
6833;BME280;3454;42.654;23.378;2022-12-18T11:40:49;95932.00;;;4.59;100.00
6833;BME280;3454;42.654;23.378;2022-12-18T11:43:30;95908.72;;;4.54;100.00
6833;BME280;3454;42.654;23.378;2022-12-18T11:46:02;95889.75;;;4.46;100.00
6833;BME280;3454;42.654;23.378;2022-12-18T11:48:49;95914.13;;;4.45;100.00
6833;BME280;3454;42.654;23.378;2022-12-18T11:51:51;95913.69;;;4.56;100.00
6833;BME280;3454;42.654;23.378;2022-12-18T11:54:18;95909.22;;;4.62;100.00
6833;BME280;3454;42.654;23.378;2022-12-18T11:56:49;95901.72;;;4.61;100.00
6833;BME280;3454;42.654;23.378;2022-12-18T12:04:43;95929.03;;;4.70;100.00
6833;BME280;3454;42.654;23.378;2022-12-18T12:07:20;95941.75;;;4.67;100.00
6833;BME280;3454;42.654;23.378;2022-12-18T12:20:51;95935.25;;;4.81;100.00
6833;BME280;3454;42.654;23.378;2022-12-18T12:23:35;95916.38;;;4.71;100.00
6833;BME280;3454;42.654;23.378;2022-12-18T12:26:20;95885.16;;;4.55;100.00
6833;BME280;3454;42.654;23.378;2022-12-18T12:29:00;95877.09;;;4.67;100.00
6833;BME280;3454;42.654;23.378;2022-12-18T12:31:47;95881.25;;;4.68;100.00
6833;BME280;3454;42.654;23.378;2022-12-18T12:39:47;95931.47;;;4.91;100.00
6833;BME280;3454;42.654;23.378;2022-12-18T12:42:41;95923.91;;;4.91;100.00
6833;BME280;3454;42.654;23.378;2022-12-18T12:45:54;95920.81;;;4.85;100.00
6833;BME280;3454;42.654;23.378;2022-12-18T12:48:49;95906.94;;;4.76;100.00
6833;BME280;3454;42.654;23.378;2022-12-18T12:51:17;95889.31;;;4.76;100.00
6833;BME280;3454;42.654;23.378;2022-12-18T12:53:44;95905.69;;;4.86;100.00
6833;BME280;3454;42.654;23.378;2022-12-18T12:56:13;95894.03;;;4.84;100.00
6833;BME280;3454;42.654;23.378;2022-12-18T12:58:51;95899.50;;;4.73;100.00
6833;BME280;3454;42.654;23.378;2022-12-18T13:08:59;95925.50;;;4.94;100.00
6833;BME280;3454;42.654;23.378;2022-12-18T13:14:25;95900.31;;;4.94;100.00
6833;BME280;3454;42.654;23.378;2022-12-18T13:16:51;95926.25;;;4.96;100.00
6833;BME280;3454;42.654;23.378;2022-12-18T13:19:22;95896.78;;;4.78;100.00
6833;BME280;3454;42.654;23.378;2022-12-18T13:21:54;95894.59;;;4.70;100.00
6833;BME280;3454;42.654;23.378;2022-12-18T13:24:30;95916.38;;;4.71;100.00
6833;BME280;3454;42.654;23.378;2022-12-18T13:26:56;95932.25;;;4.73;100.00
6833;BME280;3454;42.654;23.378;2022-12-18T13:29:42;95925.88;;;4.65;100.00
6833;BME280;3454;42.654;23.378;2022-12-18T13:32:22;95923.34;;;4.65;100.00
6833;BME280;3454;42.654;23.378;2022-12-18T13:34:48;95928.97;;;4.71;100.00
6833;BME280;3454;42.654;23.378;2022-12-18T13:39:58;95919.88;;;4.87;100.00
6833;BME280;3454;42.654;23.378;2022-12-18T13:48:10;95929.63;;;4.76;100.00
6833;BME280;3454;42.654;23.378;2022-12-18T13:50:39;95950.31;;;4.83;100.00
6833;BME280;3454;42.654;23.378;2022-12-18T13:53:04;95926.44;;;4.71;100.00
6833;BME280;3454;42.654;23.378;2022-12-18T13:55:30;95935.78;;;4.69;100.00
6833;BME280;3454;42.654;23.378;2022-12-18T13:58:06;95914.78;;;4.69;100.00
6833;BME280;3454;42.654;23.378;2022-12-18T14:00:31;95918.72;;;4.76;100.00
6833;BME280;3454;42.654;23.378;2022-12-18T14:02:58;95937.16;;;4.76;100.00
6833;BME280;3454;42.654;23.378;2022-12-18T14:05:26;95927.88;;;4.77;100.00
6833;BME280;3454;42.654;23.378;2022-12-18T14:07:53;95933.94;;;4.73;100.00
6833;BME280;3454;42.654;23.378;2022-12-18T14:10:20;95947.09;;;4.79;100.00
6833;BME280;3454;42.654;23.378;2022-12-18T14:12:50;95939.03;;;4.71;100.00
6833;BME280;3454;42.654;23.378;2022-12-18T14:17:52;95919.59;;;5.13;100.00
6833;BME280;3454;42.654;23.378;2022-12-18T14:20:18;95977.31;;;4.99;100.00
6833;BME280;3454;42.654;23.378;2022-12-18T14:22:46;95980.94;;;4.74;100.00
6833;BME280;3454;42.654;23.378;2022-12-18T14:27:42;95980.09;;;4.73;100.00
6833;BME280;3454;42.654;23.378;2022-12-18T14:30:23;95994.44;;;4.71;100.00
6833;BME280;3454;42.654;23.378;2022-12-18T14:33:13;95991.19;;;4.69;100.00
6833;BME280;3454;42.654;23.378;2022-12-18T14:36:00;96005.28;;;4.73;100.00
6833;BME280;3454;42.654;23.378;2022-12-18T14:41:01;95988.41;;;4.75;100.00
6833;BME280;3454;42.654;23.378;2022-12-18T14:43:32;96007.53;;;4.59;100.00
6833;BME280;3454;42.654;23.378;2022-12-18T14:45:59;96005.91;;;4.58;100.00
6833;BME280;3454;42.654;23.378;2022-12-18T14:48:36;95990.56;;;4.64;100.00
6833;BME280;3454;42.654;23.378;2022-12-18T14:51:05;96007.16;;;4.48;100.00
6833;BME280;3454;42.654;23.378;2022-12-18T14:53:39;96027.41;;;4.45;100.00
6833;BME280;3454;42.654;23.378;2022-12-18T14:58:45;96048.78;;;4.35;100.00
6833;BME280;3454;42.654;23.378;2022-12-18T15:01:18;96045.25;;;4.39;100.00
6833;BME280;3454;42.654;23.378;2022-12-18T15:03:44;96056.16;;;4.40;100.00